CMA CGM Aristote — MRPN4 — position and weather

sailwx.info

Track history (hours):
 
Tides and Currents Weather Stations Pressure Air Temp Water Temp Dewpoint Dewpoint Depression Visibility Wind Speed Wind Dir Waves Ship Positions

CMA CGM Aristote

Last reported at 2014-Sep-20 16:29 UTC. Time now 2014-Sep-21 20:09 UTC.
Position N 38°47' W 031°10'.

Length 170 m; draft 9.4 m.

Type: Ship (hazmat cat A). MMSI: 235054581.

Date/timePositionNaut miles runAvg speedWind from/ knotsBaromVisibWave heightAir tempDewpointWater temp
2014-Sep-20 16:29N 38°47' W 031°10'1617.9
2014-Sep-20 15:33N 38°57' W 030°53'1818.2
2014-Sep-20 14:33N 39°09' W 030°35'1818.2
2014-Sep-20 13:33N 39°19' W 030°15'1818.1
2014-Sep-20 12:33N 39°28' W 029°56'1817.9
2014-Sep-20 11:33N 39°40' W 029°38'1818.0
2014-Sep-20 10:33N 39°53' W 029°21'1817.9
2014-Sep-20 09:34N 40°05' W 029°05'2317.9
2014-Sep-20 08:17N 40°21' W 028°43'1318.1
2014-Sep-20 07:33N 40°31' W 028°31'1818.0
2014-Sep-20 06:33N 40°43' W 028°14'1818.0
2014-Sep-20 05:33N 40°55' W 027°57'1818.1
2014-Sep-20 04:33N 41°08' W 027°40'1918.0
2014-Sep-20 03:29N 41°22' W 027°22'1617.6
2014-Sep-20 02:33N 41°34' W 027°07'3617.8
2014-Sep-20 00:33N 41°58' W 026°32'  
2014-Sep-17 07:33N 49°41' W 000°42'1918.8
2014-Sep-17 06:33N 49°33' W 000°15'1414.4
2014-Sep-17 05:33N 49°29' E 000°06'3 2.8
2014-Sep-17 04:32N 49°29' E 000°10'0 0.0
2014-Sep-17 03:32N 49°29' E 000°10'0 0.0
2014-Sep-17 02:32N 49°29' E 000°10'0 0.0
2014-Sep-17 01:32N 49°29' E 000°10'0 0.0
2014-Sep-17 00:26N 49°29' E 000°10'0 0.0
2014-Sep-16 23:32N 49°29' E 000°10'0 0.0
2014-Sep-16 22:32N 49°29' E 000°10'0 0.0
2014-Sep-16 21:32N 49°29' E 000°10'0 0.0
2014-Sep-16 20:32N 49°29' E 000°10'0 0.0
2014-Sep-16 19:32N 49°29' E 000°10'0 0.0
2014-Sep-16 18:32N 49°29' E 000°10'0 0.0
2014-Sep-16 17:32N 49°29' E 000°10'0 0.0
2014-Sep-16 16:32N 49°29' E 000°10'0 0.0
2014-Sep-16 15:32N 49°29' E 000°10'0 0.0
2014-Sep-16 14:32N 49°29' E 000°10'0 0.0
2014-Sep-16 13:32N 49°29' E 000°10'0 0.0
2014-Sep-16 12:32N 49°29' E 000°10'0 0.0
2014-Sep-16 11:32N 49°29' E 000°10'2 2.1
2014-Sep-16 10:33N 49°29' E 000°07'7 7.4
2014-Sep-16 09:33N 49°30' W 000°04'0 0.0
2014-Sep-16 08:28N 49°30' W 000°04'0 0.0
2014-Sep-16 07:31N 49°30' W 000°04'0 0.0
2014-Sep-16 06:31N 49°30' W 000°04'0 0.0
2014-Sep-16 05:31N 49°30' W 000°04'0 0.0
2014-Sep-16 04:31N 49°30' W 000°04'0 0.1
2014-Sep-16 03:31N 49°30' W 000°04'5 5.3
2014-Sep-16 02:33N 49°27' E 000°02'1111.4
2014-Sep-16 01:33N 49°26' E 000°20'8 7.2
2014-Sep-16 00:28N 49°29' E 000°31'2 0.1
2014-Sep-15 00:25N 49°28' E 000°33'8 9.3
2014-Sep-14 23:33N 49°26' E 000°21'1111.0
2014-Sep-14 22:34N 49°27' E 000°04'9 8.6
2014-Sep-14 21:34N 49°30' W 000°09'1211.7
2014-Sep-14 20:32N 49°35' W 000°25'8 7.7
2014-Sep-14 19:33N 49°41' W 000°33'3 2.7
2014-Sep-14 18:33N 49°41' W 000°29'3 3.0
2014-Sep-14 17:30N 49°41' W 000°24'48 9.2
2014-Sep-14 12:15N 50°28' W 000°10'1810.5
2014-Sep-14 10:33N 50°33' E 000°17'1212.0
2014-Sep-14 09:33N 50°37' E 000°35'1313.1
2014-Sep-14 08:33N 50°45' E 000°51'2712.9
2014-Sep-14 06:27N 51°03' E 001°24'1010.9
2014-Sep-14 05:33N 51°08' E 001°37'9 9.3
2014-Sep-14 04:33N 51°17' E 001°38'9 9.0
2014-Sep-14 03:34N 51°25' E 001°31'10 9.6
2014-Sep-14 02:34N 51°29' E 001°17'1110.7
2014-Sep-14 01:34N 51°29' E 000°59'25 6.1
2014-Sep-13 21:34N 51°27' E 000°20'0 0.0
2014-Sep-13 20:34N 51°27' E 000°20'0 0.0
2014-Sep-13 19:33N 51°27' E 000°20'0 0.0
2014-Sep-13 18:33N 51°27' E 000°20'0 0.0
2014-Sep-13 17:33N 51°27' E 000°20'0 0.0
2014-Sep-13 16:33N 51°27' E 000°20'0 0.0
2014-Sep-13 15:33N 51°27' E 000°20'0 0.0
2014-Sep-13 14:33N 51°27' E 000°20'0 0.0
2014-Sep-13 13:33N 51°27' E 000°20'0 0.0
2014-Sep-13 12:33N 51°27' E 000°20'0 0.0
2014-Sep-13 11:33N 51°27' E 000°20'0 0.0
2014-Sep-13 10:33N 51°27' E 000°20'0 0.0
2014-Sep-13 09:33N 51°27' E 000°20'0 0.0
2014-Sep-13 08:34N 51°27' E 000°20'0 0.0
2014-Sep-13 07:34N 51°27' E 000°20'0 0.0
2014-Sep-13 06:33N 51°27' E 000°20'0 0.0
2014-Sep-13 05:33N 51°27' E 000°20'0 0.0
2014-Sep-13 04:34N 51°27' E 000°20'1 1.3
2014-Sep-13 03:34N 51°27' E 000°22'9 8.7
2014-Sep-13 02:33N 51°30' E 000°35'1414.0
2014-Sep-13 01:34N 51°29' E 000°57'1111.2
2014-Sep-13 00:33N 51°29' E 001°15'1111.2
2014-Sep-12 23:34N 51°28' E 001°33'1615.7
2014-Sep-12 22:34N 51°36' E 001°55'1514.8
2014-Sep-12 21:34N 51°46' E 002°13'1414.0
2014-Sep-12 20:33N 51°55' E 002°30'1712.9
2014-Sep-12 19:16N 52°03' E 002°54'1115.1
2014-Sep-12 18:33N 52°03' E 003°12'1616.6
2014-Sep-12 17:33N 52°04' E 003°39'1212.2
2014-Sep-12 16:33N 52°02' E 003°58'1010.4
2014-Sep-12 15:34N 51°56' E 004°12'7 7.4
2014-Sep-12 14:34N 51°54' E 004°24'1 0.8
2014-Sep-12 13:29N 51°53' E 004°24'0 0.0
2014-Sep-12 12:32N 51°53' E 004°24'0 0.0
2014-Sep-12 11:29N 51°53' E 004°24'0 0.0
2014-Sep-12 10:29N 51°53' E 004°24'0 0.0
2014-Sep-12 09:32N 51°53' E 004°24'0 0.0
2014-Sep-12 08:32N 51°53' E 004°24'0 0.0
2014-Sep-12 07:32N 51°53' E 004°24'0 0.0
2014-Sep-12 06:32N 51°53' E 004°24'0 0.0
2014-Sep-12 05:29N 51°53' E 004°24'0 0.0
2014-Sep-12 04:32N 51°53' E 004°24'0 0.0
2014-Sep-12 03:32N 51°53' E 004°24'0 0.0
2014-Sep-12 02:32N 51°53' E 004°24'0 0.0
2014-Sep-12 01:32N 51°53' E 004°24'0 0.0
2014-Sep-12 00:32N 51°53' E 004°24'0 0.0
2014-Sep-11 23:32N 51°53' E 004°24'0 0.0
2014-Sep-11 22:32N 51°53' E 004°24'0 0.0
2014-Sep-11 21:32N 51°53' E 004°24'0 0.0
2014-Sep-11 20:32N 51°53' E 004°24'0 0.0
2014-Sep-11 19:29N 51°53' E 004°24'0 0.0
2014-Sep-11 18:32N 51°53' E 004°24'0 0.0
2014-Sep-11 17:32N 51°53' E 004°24'0 0.0
2014-Sep-11 16:32N 51°53' E 004°24'0 0.0
2014-Sep-11 15:32N 51°53' E 004°24'0 0.0
2014-Sep-11 14:32N 51°53' E 004°24'0 0.5
2014-Sep-11 13:33N 51°53' E 004°24'7 6.7
2014-Sep-11 12:33N 51°55' E 004°14'1111.4
2014-Sep-11 11:34N 51°60' E 003°57'1111.3
2014-Sep-11 10:33N 51°57' E 003°39'1514.1
2014-Sep-11 09:29N 51°53' E 003°16'3314.5
2014-Sep-11 07:12N 51°38' E 002°28'1015.2
2014-Sep-11 06:34N 51°31' E 002°18'1514.7
2014-Sep-11 05:33N 51°18' E 002°07'1514.8
2014-Sep-11 04:34N 51°08' E 001°50'1514.6
2014-Sep-11 03:34N 50°58' E 001°32'1715.6
2014-Sep-11 02:29N 50°43' E 001°21'1415.3
2014-Sep-11 01:33N 50°32' E 001°06'1514.8
2014-Sep-11 00:33N 50°26' E 000°45'1615.0
2014-Sep-10 23:31N 50°21' E 000°22'  
Track history (hours):
 
Tides and Currents Weather Stations Pressure Air Temp Water Temp Dewpoint Dewpoint Depression Visibility Wind Speed Wind Dir Waves Ship Positions

CMA CGM Aristote

Last reported at 2014-Sep-20 16:29 UTC. Time now 2014-Sep-21 20:09 UTC.
Position N 38°47' W 031°10'.

Length 170 m; draft 9.4 m.

Type: Ship (hazmat cat A). MMSI: 235054581.

Date/timePositionNaut miles runAvg speedWind from/ knotsBaromVisibWave heightAir tempDewpointWater temp
2014-Sep-20 16:29N 38°47' W 031°10'1617.9
2014-Sep-20 15:33N 38°57' W 030°53'1818.2
2014-Sep-20 14:33N 39°09' W 030°35'1818.2
2014-Sep-20 13:33N 39°19' W 030°15'1818.1
2014-Sep-20 12:33N 39°28' W 029°56'1817.9
2014-Sep-20 11:33N 39°40' W 029°38'1818.0
2014-Sep-20 10:33N 39°53' W 029°21'1817.9
2014-Sep-20 09:34N 40°05' W 029°05'2317.9
2014-Sep-20 08:17N 40°21' W 028°43'1318.1
2014-Sep-20 07:33N 40°31' W 028°31'1818.0
2014-Sep-20 06:33N 40°43' W 028°14'1818.0
2014-Sep-20 05:33N 40°55' W 027°57'1818.1
2014-Sep-20 04:33N 41°08' W 027°40'1918.0
2014-Sep-20 03:29N 41°22' W 027°22'1617.6
2014-Sep-20 02:33N 41°34' W 027°07'3617.8
2014-Sep-20 00:33N 41°58' W 026°32'  
2014-Sep-17 07:33N 49°41' W 000°42'1918.8
2014-Sep-17 06:33N 49°33' W 000°15'1414.4
2014-Sep-17 05:33N 49°29' E 000°06'3 2.8
2014-Sep-17 04:32N 49°29' E 000°10'0 0.0
2014-Sep-17 03:32N 49°29' E 000°10'0 0.0
2014-Sep-17 02:32N 49°29' E 000°10'0 0.0
2014-Sep-17 01:32N 49°29' E 000°10'0 0.0
2014-Sep-17 00:26N 49°29' E 000°10'0 0.0
2014-Sep-16 23:32N 49°29' E 000°10'0 0.0
2014-Sep-16 22:32N 49°29' E 000°10'0 0.0
2014-Sep-16 21:32N 49°29' E 000°10'0 0.0
2014-Sep-16 20:32N 49°29' E 000°10'0 0.0
2014-Sep-16 19:32N 49°29' E 000°10'0 0.0
2014-Sep-16 18:32N 49°29' E 000°10'0 0.0
2014-Sep-16 17:32N 49°29' E 000°10'0 0.0
2014-Sep-16 16:32N 49°29' E 000°10'0 0.0
2014-Sep-16 15:32N 49°29' E 000°10'0 0.0
2014-Sep-16 14:32N 49°29' E 000°10'0 0.0
2014-Sep-16 13:32N 49°29' E 000°10'0 0.0
2014-Sep-16 12:32N 49°29' E 000°10'0 0.0
2014-Sep-16 11:32N 49°29' E 000°10'2 2.1
2014-Sep-16 10:33N 49°29' E 000°07'7 7.4
2014-Sep-16 09:33N 49°30' W 000°04'0 0.0
2014-Sep-16 08:28N 49°30' W 000°04'0 0.0
2014-Sep-16 07:31N 49°30' W 000°04'0 0.0
2014-Sep-16 06:31N 49°30' W 000°04'0 0.0
2014-Sep-16 05:31N 49°30' W 000°04'0 0.0
2014-Sep-16 04:31N 49°30' W 000°04'0 0.1
2014-Sep-16 03:31N 49°30' W 000°04'5 5.3
2014-Sep-16 02:33N 49°27' E 000°02'1111.4
2014-Sep-16 01:33N 49°26' E 000°20'8 7.2
2014-Sep-16 00:28N 49°29' E 000°31'2 0.1
2014-Sep-15 00:25N 49°28' E 000°33'8 9.3
2014-Sep-14 23:33N 49°26' E 000°21'1111.0
2014-Sep-14 22:34N 49°27' E 000°04'9 8.6
2014-Sep-14 21:34N 49°30' W 000°09'1211.7
2014-Sep-14 20:32N 49°35' W 000°25'8 7.7
2014-Sep-14 19:33N 49°41' W 000°33'3 2.7
2014-Sep-14 18:33N 49°41' W 000°29'3 3.0
2014-Sep-14 17:30N 49°41' W 000°24'48 9.2
2014-Sep-14 12:15N 50°28' W 000°10'1810.5
2014-Sep-14 10:33N 50°33' E 000°17'1212.0
2014-Sep-14 09:33N 50°37' E 000°35'1313.1
2014-Sep-14 08:33N 50°45' E 000°51'2712.9
2014-Sep-14 06:27N 51°03' E 001°24'1010.9
2014-Sep-14 05:33N 51°08' E 001°37'9 9.3
2014-Sep-14 04:33N 51°17' E 001°38'9 9.0
2014-Sep-14 03:34N 51°25' E 001°31'10 9.6
2014-Sep-14 02:34N 51°29' E 001°17'1110.7
2014-Sep-14 01:34N 51°29' E 000°59'25 6.1
2014-Sep-13 21:34N 51°27' E 000°20'0 0.0
2014-Sep-13 20:34N 51°27' E 000°20'0 0.0
2014-Sep-13 19:33N 51°27' E 000°20'0 0.0
2014-Sep-13 18:33N 51°27' E 000°20'0 0.0
2014-Sep-13 17:33N 51°27' E 000°20'0 0.0
2014-Sep-13 16:33N 51°27' E 000°20'0 0.0
2014-Sep-13 15:33N 51°27' E 000°20'0 0.0
2014-Sep-13 14:33N 51°27' E 000°20'0 0.0
2014-Sep-13 13:33N 51°27' E 000°20'0 0.0
2014-Sep-13 12:33N 51°27' E 000°20'0 0.0
2014-Sep-13 11:33N 51°27' E 000°20'0 0.0
2014-Sep-13 10:33N 51°27' E 000°20'0 0.0
2014-Sep-13 09:33N 51°27' E 000°20'0 0.0
2014-Sep-13 08:34N 51°27' E 000°20'0 0.0
2014-Sep-13 07:34N 51°27' E 000°20'0 0.0
2014-Sep-13 06:33N 51°27' E 000°20'0 0.0
2014-Sep-13 05:33N 51°27' E 000°20'0 0.0
2014-Sep-13 04:34N 51°27' E 000°20'1 1.3
2014-Sep-13 03:34N 51°27' E 000°22'9 8.7
2014-Sep-13 02:33N 51°30' E 000°35'1414.0
2014-Sep-13 01:34N 51°29' E 000°57'1111.2
2014-Sep-13 00:33N 51°29' E 001°15'1111.2
2014-Sep-12 23:34N 51°28' E 001°33'1615.7
2014-Sep-12 22:34N 51°36' E 001°55'1514.8
2014-Sep-12 21:34N 51°46' E 002°13'1414.0
2014-Sep-12 20:33N 51°55' E 002°30'1712.9
2014-Sep-12 19:16N 52°03' E 002°54'1115.1
2014-Sep-12 18:33N 52°03' E 003°12'1616.6
2014-Sep-12 17:33N 52°04' E 003°39'1212.2
2014-Sep-12 16:33N 52°02' E 003°58'1010.4
2014-Sep-12 15:34N 51°56' E 004°12'7 7.4
2014-Sep-12 14:34N 51°54' E 004°24'1 0.8
2014-Sep-12 13:29N 51°53' E 004°24'0 0.0
2014-Sep-12 12:32N 51°53' E 004°24'0 0.0
2014-Sep-12 11:29N 51°53' E 004°24'0 0.0
2014-Sep-12 10:29N 51°53' E 004°24'0 0.0
2014-Sep-12 09:32N 51°53' E 004°24'0 0.0
2014-Sep-12 08:32N 51°53' E 004°24'0 0.0
2014-Sep-12 07:32N 51°53' E 004°24'0 0.0
2014-Sep-12 06:32N 51°53' E 004°24'0 0.0
2014-Sep-12 05:29N 51°53' E 004°24'0 0.0
2014-Sep-12 04:32N 51°53' E 004°24'0 0.0
2014-Sep-12 03:32N 51°53' E 004°24'0 0.0
2014-Sep-12 02:32N 51°53' E 004°24'0 0.0
2014-Sep-12 01:32N 51°53' E 004°24'0 0.0
2014-Sep-12 00:32N 51°53' E 004°24'0 0.0
2014-Sep-11 23:32N 51°53' E 004°24'0 0.0
2014-Sep-11 22:32N 51°53' E 004°24'0 0.0
2014-Sep-11 21:32N 51°53' E 004°24'0 0.0
2014-Sep-11 20:32N 51°53' E 004°24'0 0.0
2014-Sep-11 19:29N 51°53' E 004°24'0 0.0
2014-Sep-11 18:32N 51°53' E 004°24'0 0.0
2014-Sep-11 17:32N 51°53' E 004°24'0 0.0
2014-Sep-11 16:32N 51°53' E 004°24'0 0.0
2014-Sep-11 15:32N 51°53' E 004°24'0 0.0
2014-Sep-11 14:32N 51°53' E 004°24'0 0.5
2014-Sep-11 13:33N 51°53' E 004°24'7 6.7
2014-Sep-11 12:33N 51°55' E 004°14'1111.4
2014-Sep-11 11:34N 51°60' E 003°57'1111.3
2014-Sep-11 10:33N 51°57' E 003°39'1514.1
2014-Sep-11 09:29N 51°53' E 003°16'3314.5
2014-Sep-11 07:12N 51°38' E 002°28'1015.2
2014-Sep-11 06:34N 51°31' E 002°18'1514.7
2014-Sep-11 05:33N 51°18' E 002°07'1514.8
2014-Sep-11 04:34N 51°08' E 001°50'1514.6
2014-Sep-11 03:34N 50°58' E 001°32'1715.6
2014-Sep-11 02:29N 50°43' E 001°21'1415.3
2014-Sep-11 01:33N 50°32' E 001°06'1514.8
2014-Sep-11 00:33N 50°26' E 000°45'1615.0
2014-Sep-10 23:31N 50°21' E 000°22'  

Dump ship's entire track history